sensor_id;sensor_type;location;lat;lon;timestamp;P1;durP1;ratioP1;P2;durP2;ratioP2
48627;SDS011;34424;52.234;6.500;2024-03-02T00:01:56;3.2;;;2.6;;
48627;SDS011;34424;52.234;6.500;2024-03-02T00:06:55;4;;;2.5;;
48627;SDS011;34424;52.234;6.500;2024-03-02T00:11:55;3.3;;;2.4;;
48627;SDS011;34424;52.234;6.500;2024-03-02T00:16:55;2.5;;;2.1;;
48627;SDS011;34424;52.234;6.500;2024-03-02T00:21:55;2.6;;;2.1;;
48627;SDS011;34424;52.234;6.500;2024-03-02T00:26:54;2.2;;;1.9;;
48627;SDS011;34424;52.234;6.500;2024-03-02T00:31:54;2.4;;;2;;
48627;SDS011;34424;52.234;6.500;2024-03-02T00:36:54;3.3;;;1.9;;
48627;SDS011;34424;52.234;6.500;2024-03-02T00:41:54;2.3;;;1.9;;
48627;SDS011;34424;52.234;6.500;2024-03-02T00:46:53;2.2;;;1.8;;
48627;SDS011;34424;52.234;6.500;2024-03-02T00:51:53;2.6;;;2.1;;
48627;SDS011;34424;52.234;6.500;2024-03-02T00:56:53;2.8;;;2.1;;
48627;SDS011;34424;52.234;6.500;2024-03-02T01:01:53;3.3;;;2.2;;
48627;SDS011;34424;52.234;6.500;2024-03-02T01:06:52;3.1;;;2.1;;
48627;SDS011;34424;52.234;6.500;2024-03-02T01:11:52;2.9;;;1.8;;
48627;SDS011;34424;52.234;6.500;2024-03-02T01:16:52;3.8;;;2;;
48627;SDS011;34424;52.234;6.500;2024-03-02T01:21:52;2.2;;;1.7;;
48627;SDS011;34424;52.234;6.500;2024-03-02T01:26:51;2.3;;;2.1;;
48627;SDS011;34424;52.234;6.500;2024-03-02T01:31:51;2.5;;;2.3;;
48627;SDS011;34424;52.234;6.500;2024-03-02T01:36:51;1.9;;;1.8;;
48627;SDS011;34424;52.234;6.500;2024-03-02T01:41:51;2.4;;;2;;
48627;SDS011;34424;52.234;6.500;2024-03-02T01:46:50;2.3;;;1.9;;
48627;SDS011;34424;52.234;6.500;2024-03-02T01:51:50;2.1;;;1.8;;
48627;SDS011;34424;52.234;6.500;2024-03-02T01:56:50;3;;;1.9;;
48627;SDS011;34424;52.234;6.500;2024-03-02T02:01:50;3;;;2;;
48627;SDS011;34424;52.234;6.500;2024-03-02T02:06:49;2.5;;;1.7;;
48627;SDS011;34424;52.234;6.500;2024-03-02T02:11:49;1.6;;;1.5;;
48627;SDS011;34424;52.234;6.500;2024-03-02T02:16:49;3.2;;;1.9;;
48627;SDS011;34424;52.234;6.500;2024-03-02T02:21:49;2.2;;;1.8;;
48627;SDS011;34424;52.234;6.500;2024-03-02T02:26:48;2.3;;;1.6;;
48627;SDS011;34424;52.234;6.500;2024-03-02T02:31:48;2.9;;;1.7;;
48627;SDS011;34424;52.234;6.500;2024-03-02T02:36:48;3.9;;;1.8;;
48627;SDS011;34424;52.234;6.500;2024-03-02T02:41:48;3;;;2;;
48627;SDS011;34424;52.234;6.500;2024-03-02T02:46:48;4;;;2;;
48627;SDS011;34424;52.234;6.500;2024-03-02T02:51:47;3.6;;;1.9;;
48627;SDS011;34424;52.234;6.500;2024-03-02T02:56:47;2.2;;;1.9;;
48627;SDS011;34424;52.234;6.500;2024-03-02T03:01:47;4.3;;;2.2;;
48627;SDS011;34424;52.234;6.500;2024-03-02T03:06:47;3;;;1.8;;
48627;SDS011;34424;52.234;6.500;2024-03-02T03:11:47;2.2;;;1.6;;
48627;SDS011;34424;52.234;6.500;2024-03-02T03:16:46;1.6;;;1.5;;
48627;SDS011;34424;52.234;6.500;2024-03-02T03:21:46;3;;;1.3;;
48627;SDS011;34424;52.234;6.500;2024-03-02T03:26:46;1.6;;;1.4;;
48627;SDS011;34424;52.234;6.500;2024-03-02T03:31:46;2.4;;;1.6;;
48627;SDS011;34424;52.234;6.500;2024-03-02T03:36:46;2.5;;;1.6;;
48627;SDS011;34424;52.234;6.500;2024-03-02T03:41:45;2.9;;;1.3;;
48627;SDS011;34424;52.234;6.500;2024-03-02T03:46:45;2.1;;;1.4;;
48627;SDS011;34424;52.234;6.500;2024-03-02T03:51:45;1.5;;;1.1;;
48627;SDS011;34424;52.234;6.500;2024-03-02T03:56:45;2;;;1.2;;
48627;SDS011;34424;52.234;6.500;2024-03-02T04:01:45;3.8;;;1.1;;
48627;SDS011;34424;52.234;6.500;2024-03-02T04:06:44;3.2;;;1.3;;
48627;SDS011;34424;52.234;6.500;2024-03-02T04:11:44;2;;;1.3;;
48627;SDS011;34424;52.234;6.500;2024-03-02T04:16:44;1.8;;;1.1;;
48627;SDS011;34424;52.234;6.500;2024-03-02T04:21:44;1.2;;;1.1;;
48627;SDS011;34424;52.234;6.500;2024-03-02T04:26:43;2.1;;;1;;
48627;SDS011;34424;52.234;6.500;2024-03-02T04:31:43;1.2;;;1.1;;
48627;SDS011;34424;52.234;6.500;2024-03-02T04:36:43;1.8;;;1.2;;
48627;SDS011;34424;52.234;6.500;2024-03-02T04:41:43;0.8;;;0.8;;
48627;SDS011;34424;52.234;6.500;2024-03-02T04:46:43;1.2;;;0.9;;
48627;SDS011;34424;52.234;6.500;2024-03-02T04:51:42;1.7;;;0.8;;
48627;SDS011;34424;52.234;6.500;2024-03-02T04:56:42;1.4;;;0.8;;
48627;SDS011;34424;52.234;6.500;2024-03-02T05:01:42;1.1;;;0.8;;
48627;SDS011;34424;52.234;6.500;2024-03-02T05:06:42;1;;;0.7;;
48627;SDS011;34424;52.234;6.500;2024-03-02T05:11:41;1.1;;;0.9;;
48627;SDS011;34424;52.234;6.500;2024-03-02T05:16:41;1;;;0.8;;
48627;SDS011;34424;52.234;6.500;2024-03-02T05:21:41;1.3;;;0.6;;
48627;SDS011;34424;52.234;6.500;2024-03-02T05:26:41;1.5;;;0.7;;
48627;SDS011;34424;52.234;6.500;2024-03-02T05:31:40;1.2;;;0.8;;
48627;SDS011;34424;52.234;6.500;2024-03-02T05:36:40;2.1;;;0.6;;
48627;SDS011;34424;52.234;6.500;2024-03-02T05:41:40;1;;;0.7;;
48627;SDS011;34424;52.234;6.500;2024-03-02T05:46:40;0.8;;;0.7;;
48627;SDS011;34424;52.234;6.500;2024-03-02T05:51:39;1.3;;;0.6;;
48627;SDS011;34424;52.234;6.500;2024-03-02T05:56:39;0.6;;;0.6;;
48627;SDS011;34424;52.234;6.500;2024-03-02T06:01:39;1.3;;;0.6;;
48627;SDS011;34424;52.234;6.500;2024-03-02T06:06:39;0.9;;;0.8;;
48627;SDS011;34424;52.234;6.500;2024-03-02T06:11:39;2.2;;;0.9;;
48627;SDS011;34424;52.234;6.500;2024-03-02T06:16:38;1.5;;;0.9;;
48627;SDS011;34424;52.234;6.500;2024-03-02T06:21:38;0.8;;;0.7;;
48627;SDS011;34424;52.234;6.500;2024-03-02T06:26:37;1;;;0.7;;
48627;SDS011;34424;52.234;6.500;2024-03-02T06:31:37;0.9;;;0.8;;
48627;SDS011;34424;52.234;6.500;2024-03-02T06:36:38;1.5;;;0.7;;
48627;SDS011;34424;52.234;6.500;2024-03-02T06:41:37;1;;;0.8;;
48627;SDS011;34424;52.234;6.500;2024-03-02T06:46:36;1.1;;;0.9;;
48627;SDS011;34424;52.234;6.500;2024-03-02T06:51:36;1.2;;;0.8;;
48627;SDS011;34424;52.234;6.500;2024-03-02T06:56:36;1.5;;;0.7;;
48627;SDS011;34424;52.234;6.500;2024-03-02T07:01:36;1.4;;;0.8;;
48627;SDS011;34424;52.234;6.500;2024-03-02T07:06:35;1.3;;;0.8;;
48627;SDS011;34424;52.234;6.500;2024-03-02T07:11:35;0.9;;;0.8;;
48627;SDS011;34424;52.234;6.500;2024-03-02T07:16:35;1.3;;;0.7;;
48627;SDS011;34424;52.234;6.500;2024-03-02T07:21:34;0.9;;;0.7;;
48627;SDS011;34424;52.234;6.500;2024-03-02T07:26:34;0.7;;;0.7;;
48627;SDS011;34424;52.234;6.500;2024-03-02T07:31:34;1.5;;;0.9;;
48627;SDS011;34424;52.234;6.500;2024-03-02T07:36:35;1;;;0.7;;
48627;SDS011;34424;52.234;6.500;2024-03-02T07:41:34;1.3;;;0.6;;
48627;SDS011;34424;52.234;6.500;2024-03-02T07:46:33;1.9;;;0.8;;
48627;SDS011;34424;52.234;6.500;2024-03-02T07:51:33;2.9;;;0.7;;
48627;SDS011;34424;52.234;6.500;2024-03-02T07:56:33;1.4;;;0.6;;
48627;SDS011;34424;52.234;6.500;2024-03-02T08:01:33;1;;;0.7;;
48627;SDS011;34424;52.234;6.500;2024-03-02T08:06:33;1.9;;;0.8;;
48627;SDS011;34424;52.234;6.500;2024-03-02T08:11:33;1.4;;;0.8;;
48627;SDS011;34424;52.234;6.500;2024-03-02T08:16:33;2.3;;;1.1;;
48627;SDS011;34424;52.234;6.500;2024-03-02T08:21:33;1.1;;;0.7;;
48627;SDS011;34424;52.234;6.500;2024-03-02T08:26:33;0.8;;;0.8;;
48627;SDS011;34424;52.234;6.500;2024-03-02T08:31:33;1.9;;;0.8;;
48627;SDS011;34424;52.234;6.500;2024-03-02T08:36:34;2.4;;;0.9;;
48627;SDS011;34424;52.234;6.500;2024-03-02T08:41:34;2.8;;;0.8;;
48627;SDS011;34424;52.234;6.500;2024-03-02T08:46:34;1.5;;;1;;
48627;SDS011;34424;52.234;6.500;2024-03-02T08:51:34;2.2;;;1.2;;
48627;SDS011;34424;52.234;6.500;2024-03-02T08:56:34;2.3;;;1.2;;
48627;SDS011;34424;52.234;6.500;2024-03-02T09:01:34;1.8;;;1.1;;
48627;SDS011;34424;52.234;6.500;2024-03-02T09:06:34;1.2;;;1;;
48627;SDS011;34424;52.234;6.500;2024-03-02T09:11:34;1.7;;;1.2;;
48627;SDS011;34424;52.234;6.500;2024-03-02T09:16:33;2.1;;;1;;
48627;SDS011;34424;52.234;6.500;2024-03-02T09:21:33;1.9;;;1.1;;
48627;SDS011;34424;52.234;6.500;2024-03-02T09:26:33;1.5;;;0.9;;
48627;SDS011;34424;52.234;6.500;2024-03-02T09:31:38;2.2;;;1;;
48627;SDS011;34424;52.234;6.500;2024-03-02T09:36:34;1.2;;;0.8;;
48627;SDS011;34424;52.234;6.500;2024-03-02T09:41:34;2.7;;;1.1;;
48627;SDS011;34424;52.234;6.500;2024-03-02T09:46:34;1.4;;;0.8;;
48627;SDS011;34424;52.234;6.500;2024-03-02T09:51:34;2;;;0.9;;
48627;SDS011;34424;52.234;6.500;2024-03-02T09:56:34;1.5;;;1;;
48627;SDS011;34424;52.234;6.500;2024-03-02T10:01:34;1.5;;;1.1;;
48627;SDS011;34424;52.234;6.500;2024-03-02T10:06:34;1.8;;;1.1;;
48627;SDS011;34424;52.234;6.500;2024-03-02T10:11:34;1.3;;;0.9;;
48627;SDS011;34424;52.234;6.500;2024-03-02T10:16:34;1.4;;;1;;
48627;SDS011;34424;52.234;6.500;2024-03-02T10:21:34;1.7;;;1.1;;
48627;SDS011;34424;52.234;6.500;2024-03-02T10:26:34;1.8;;;1.1;;
48627;SDS011;34424;52.234;6.500;2024-03-02T10:31:34;3;;;1.2;;
48627;SDS011;34424;52.234;6.500;2024-03-02T10:36:34;2.1;;;1.2;;
48627;SDS011;34424;52.234;6.500;2024-03-02T10:41:35;1.7;;;1.1;;
48627;SDS011;34424;52.234;6.500;2024-03-02T10:46:35;1.6;;;1.2;;
48627;SDS011;34424;52.234;6.500;2024-03-02T10:51:34;2.1;;;0.9;;
48627;SDS011;34424;52.234;6.500;2024-03-02T10:56:37;2.8;;;1.1;;
48627;SDS011;34424;52.234;6.500;2024-03-02T11:01:35;7.8;;;1.5;;
48627;SDS011;34424;52.234;6.500;2024-03-02T11:06:35;2;;;1.3;;
48627;SDS011;34424;52.234;6.500;2024-03-02T11:11:36;2.3;;;1;;
48627;SDS011;34424;52.234;6.500;2024-03-02T11:16:35;1.9;;;1;;
48627;SDS011;34424;52.234;6.500;2024-03-02T11:21:35;2.1;;;1.1;;
48627;SDS011;34424;52.234;6.500;2024-03-02T11:26:35;2.7;;;1.3;;
48627;SDS011;34424;52.234;6.500;2024-03-02T14:35:31;3.1;;;1.9;;
48627;SDS011;34424;52.234;6.500;2024-03-02T14:40:31;4.1;;;2.1;;
48627;SDS011;34424;52.234;6.500;2024-03-02T14:45:31;3.2;;;2.4;;
48627;SDS011;34424;52.234;6.500;2024-03-02T14:50:31;3;;;2.1;;
48627;SDS011;34424;52.234;6.500;2024-03-02T14:55:31;15.7;;;12.6;;
48627;SDS011;34424;52.234;6.500;2024-03-02T15:00:31;8.3;;;6.1;;
48627;SDS011;34424;52.234;6.500;2024-03-02T15:05:31;6.8;;;3.4;;
48627;SDS011;34424;52.234;6.500;2024-03-02T15:10:31;8.3;;;5.8;;
48627;SDS011;34424;52.234;6.500;2024-03-02T15:15:31;7.8;;;6.8;;
48627;SDS011;34424;52.234;6.500;2024-03-02T15:20:31;4;;;3.7;;
48627;SDS011;34424;52.234;6.500;2024-03-02T15:25:31;6.2;;;4.9;;
48627;SDS011;34424;52.234;6.500;2024-03-02T15:30:31;6.3;;;5.8;;
48627;SDS011;34424;52.234;6.500;2024-03-02T15:35:31;3.3;;;2.2;;
48627;SDS011;34424;52.234;6.500;2024-03-02T15:40:31;8.1;;;7;;
48627;SDS011;34424;52.234;6.500;2024-03-02T15:45:31;5.9;;;4.8;;
48627;SDS011;34424;52.234;6.500;2024-03-02T15:50:31;5;;;3.6;;
48627;SDS011;34424;52.234;6.500;2024-03-02T15:55:31;3.7;;;3.3;;
48627;SDS011;34424;52.234;6.500;2024-03-02T16:00:31;8.4;;;7.2;;
48627;SDS011;34424;52.234;6.500;2024-03-02T16:05:31;5.5;;;4.1;;
48627;SDS011;34424;52.234;6.500;2024-03-02T16:10:31;6.4;;;4.2;;
48627;SDS011;34424;52.234;6.500;2024-03-02T16:15:31;4.1;;;2.5;;
48627;SDS011;34424;52.234;6.500;2024-03-02T16:20:31;5.3;;;3.1;;
48627;SDS011;34424;52.234;6.500;2024-03-02T16:25:31;4.3;;;3.9;;
48627;SDS011;34424;52.234;6.500;2024-03-02T16:30:31;7.6;;;5.7;;
48627;SDS011;34424;52.234;6.500;2024-03-02T16:35:31;7.7;;;6;;
48627;SDS011;34424;52.234;6.500;2024-03-02T16:40:31;28.2;;;23;;
48627;SDS011;34424;52.234;6.500;2024-03-02T16:45:30;9.6;;;7.6;;
48627;SDS011;34424;52.234;6.500;2024-03-02T16:50:30;4.7;;;4;;
48627;SDS011;34424;52.234;6.500;2024-03-02T16:55:30;11.8;;;10.8;;
48627;SDS011;34424;52.234;6.500;2024-03-02T17:00:30;5;;;4.5;;
48627;SDS011;34424;52.234;6.500;2024-03-02T17:05:30;10.1;;;9.1;;
48627;SDS011;34424;52.234;6.500;2024-03-02T17:10:30;42.2;;;31.6;;
48627;SDS011;34424;52.234;6.500;2024-03-02T17:15:30;46.3;;;33.6;;
48627;SDS011;34424;52.234;6.500;2024-03-02T17:20:30;3.2;;;2.4;;
48627;SDS011;34424;52.234;6.500;2024-03-02T17:25:30;2.9;;;2.2;;
48627;SDS011;34424;52.234;6.500;2024-03-02T17:30:29;5.7;;;5.1;;
48627;SDS011;34424;52.234;6.500;2024-03-02T17:35:29;5.2;;;4.7;;
48627;SDS011;34424;52.234;6.500;2024-03-02T17:40:29;5.7;;;5.2;;
48627;SDS011;34424;52.234;6.500;2024-03-02T17:45:29;3.9;;;3.6;;
48627;SDS011;34424;52.234;6.500;2024-03-02T17:50:29;8.1;;;7.4;;
48627;SDS011;34424;52.234;6.500;2024-03-02T17:55:29;20.5;;;17.1;;
48627;SDS011;34424;52.234;6.500;2024-03-02T18:00:29;11.2;;;10;;
48627;SDS011;34424;52.234;6.500;2024-03-02T18:05:29;6.3;;;5.6;;
48627;SDS011;34424;52.234;6.500;2024-03-02T18:10:29;7.6;;;6.9;;
48627;SDS011;34424;52.234;6.500;2024-03-02T18:15:28;8.4;;;7.6;;
48627;SDS011;34424;52.234;6.500;2024-03-02T18:20:28;18.7;;;14.6;;
48627;SDS011;34424;52.234;6.500;2024-03-02T18:25:28;28.6;;;23.4;;
48627;SDS011;34424;52.234;6.500;2024-03-02T18:30:28;14.2;;;10.9;;
48627;SDS011;34424;52.234;6.500;2024-03-02T18:35:28;10.3;;;8.5;;
48627;SDS011;34424;52.234;6.500;2024-03-02T18:40:28;7.1;;;6.4;;
48627;SDS011;34424;52.234;6.500;2024-03-02T18:45:28;7;;;6.3;;
48627;SDS011;34424;52.234;6.500;2024-03-02T18:50:28;12.3;;;11.1;;
48627;SDS011;34424;52.234;6.500;2024-03-02T18:55:27;9.6;;;8.6;;
48627;SDS011;34424;52.234;6.500;2024-03-02T19:00:27;9;;;7.6;;
48627;SDS011;34424;52.234;6.500;2024-03-02T19:05:27;6.6;;;5.9;;
48627;SDS011;34424;52.234;6.500;2024-03-02T19:10:27;6.5;;;5;;
48627;SDS011;34424;52.234;6.500;2024-03-02T19:15:27;8.4;;;7.4;;
48627;SDS011;34424;52.234;6.500;2024-03-02T19:20:27;8.1;;;7.3;;
48627;SDS011;34424;52.234;6.500;2024-03-02T19:25:27;6.7;;;5.8;;
48627;SDS011;34424;52.234;6.500;2024-03-02T19:30:27;6.6;;;6;;
48627;SDS011;34424;52.234;6.500;2024-03-02T19:35:27;6.6;;;5.9;;
48627;SDS011;34424;52.234;6.500;2024-03-02T19:40:26;4.7;;;3.4;;
48627;SDS011;34424;52.234;6.500;2024-03-02T19:45:26;3.9;;;3.5;;
48627;SDS011;34424;52.234;6.500;2024-03-02T19:50:26;5.3;;;4.6;;
48627;SDS011;34424;52.234;6.500;2024-03-02T19:55:26;6.9;;;5;;
48627;SDS011;34424;52.234;6.500;2024-03-02T20:00:26;6.2;;;5;;
48627;SDS011;34424;52.234;6.500;2024-03-02T20:05:26;5.7;;;4.5;;
48627;SDS011;34424;52.234;6.500;2024-03-02T20:10:26;7.7;;;6.3;;
48627;SDS011;34424;52.234;6.500;2024-03-02T20:15:26;5.4;;;4.2;;
48627;SDS011;34424;52.234;6.500;2024-03-02T20:20:25;4.4;;;4;;
48627;SDS011;34424;52.234;6.500;2024-03-02T20:25:25;6.7;;;6.1;;
48627;SDS011;34424;52.234;6.500;2024-03-02T20:30:25;11;;;9.1;;
48627;SDS011;34424;52.234;6.500;2024-03-02T20:35:25;5.4;;;4.9;;
48627;SDS011;34424;52.234;6.500;2024-03-02T20:40:25;6;;;4.8;;
48627;SDS011;34424;52.234;6.500;2024-03-02T20:45:25;6.1;;;5.2;;
48627;SDS011;34424;52.234;6.500;2024-03-02T20:50:24;12.9;;;8.8;;
48627;SDS011;34424;52.234;6.500;2024-03-02T20:55:24;5.7;;;4.3;;
48627;SDS011;34424;52.234;6.500;2024-03-02T21:00:24;4.5;;;4.1;;
48627;SDS011;34424;52.234;6.500;2024-03-02T21:05:24;7.4;;;6.7;;
48627;SDS011;34424;52.234;6.500;2024-03-02T21:10:24;5.8;;;4.9;;
48627;SDS011;34424;52.234;6.500;2024-03-02T21:15:23;6.4;;;5.6;;
48627;SDS011;34424;52.234;6.500;2024-03-02T21:20:23;5.5;;;5;;
48627;SDS011;34424;52.234;6.500;2024-03-02T21:25:23;8.3;;;7;;
48627;SDS011;34424;52.234;6.500;2024-03-02T21:30:23;6.5;;;5.8;;
48627;SDS011;34424;52.234;6.500;2024-03-02T21:35:22;5.3;;;4.8;;
48627;SDS011;34424;52.234;6.500;2024-03-02T21:40:22;4.6;;;4.2;;
48627;SDS011;34424;52.234;6.500;2024-03-02T21:45:22;4.9;;;4.4;;
48627;SDS011;34424;52.234;6.500;2024-03-02T21:50:22;4.9;;;4.4;;
48627;SDS011;34424;52.234;6.500;2024-03-02T21:55:22;5.7;;;5.1;;
48627;SDS011;34424;52.234;6.500;2024-03-02T22:00:21;4.9;;;4.4;;
48627;SDS011;34424;52.234;6.500;2024-03-02T22:05:21;10.8;;;9.7;;
48627;SDS011;34424;52.234;6.500;2024-03-02T22:10:21;22.8;;;17.3;;
48627;SDS011;34424;52.234;6.500;2024-03-02T22:15:21;9.5;;;8;;
48627;SDS011;34424;52.234;6.500;2024-03-02T22:20:20;4.5;;;4.1;;
48627;SDS011;34424;52.234;6.500;2024-03-02T22:25:20;4.4;;;3.5;;
48627;SDS011;34424;52.234;6.500;2024-03-02T22:30:20;4.6;;;3.7;;
48627;SDS011;34424;52.234;6.500;2024-03-02T22:35:20;4;;;3.4;;
48627;SDS011;34424;52.234;6.500;2024-03-02T22:40:19;3.9;;;3.5;;
48627;SDS011;34424;52.234;6.500;2024-03-02T22:45:19;3.8;;;3.4;;
48627;SDS011;34424;52.234;6.500;2024-03-02T22:50:19;4.3;;;3.6;;
48627;SDS011;34424;52.234;6.500;2024-03-02T22:55:19;4.3;;;3.6;;
48627;SDS011;34424;52.234;6.500;2024-03-02T23:00:19;3.7;;;3.4;;
48627;SDS011;34424;52.234;6.500;2024-03-02T23:05:18;3.9;;;3.5;;
48627;SDS011;34424;52.234;6.500;2024-03-02T23:10:18;3.6;;;3.3;;
48627;SDS011;34424;52.234;6.500;2024-03-02T23:15:18;3.7;;;3.3;;
48627;SDS011;34424;52.234;6.500;2024-03-02T23:20:18;4.2;;;3.7;;
48627;SDS011;34424;52.234;6.500;2024-03-02T23:25:17;4.2;;;3.8;;
48627;SDS011;34424;52.234;6.500;2024-03-02T23:30:17;5.1;;;3.9;;
48627;SDS011;34424;52.234;6.500;2024-03-02T23:35:17;4.2;;;3.8;;
48627;SDS011;34424;52.234;6.500;2024-03-02T23:40:17;6.1;;;4.5;;
48627;SDS011;34424;52.234;6.500;2024-03-02T23:45:16;4.7;;;4.3;;
48627;SDS011;34424;52.234;6.500;2024-03-02T23:50:16;4.8;;;4.3;;
48627;SDS011;34424;52.234;6.500;2024-03-02T23:55:16;5;;;4.5;;
